ロサンゼルス の空港の天気 - METARとTAF

ロサンゼルス国際空港 ( KLAX / LAX ) - アメリカ カリフォルニア州ロサンゼルス
飛行場実況気象(Metar)
観測時間01/22 19:53 PST (01/23 03:53 UTC)
風向・風速北 2m/s
視程10km以上
天気現象
なし
気温14.4℃
湿度67%
気圧1021.4hPa
METARKLAX 230353Z 01004KT 10SM CLR 14/08 A3017 RMK AO2 SLP214 T01440083
過去の天気等 Google飛行場航空写真 Wunderground天気予報

過去48時間のMETAR

飛行場予報(TAF)
発表時間: 1/22 19:20 PST (1/23 03:20 UTC)
予報対象時間: 22日19時 PST ~ 23日22時 PST
風向・風速西南西 3m/s
視程10km以上
なし
22日21時 PST から
風向・風速不定 2m/s
視程10km以上
なし
23日12時 PST から
風向・風速西 5m/s
視程10km以上
なし
23日21時 PST から
風向・風速不定 2m/s
視程10km以上
なし
KLAX 230320Z 2303/2406 24006KT P6SM SKC
FM230500 VRB04KT P6SM SKC
FM232000 27010KT P6SM SKC
FM240500 VRB03KT P6SM SKC